sensor_id;sensor_type;location;lat;lon;timestamp;P1;durP1;ratioP1;P2;durP2;ratioP2
10661;SDS011;5379;51.034;7.006;2024-03-23T00:54:26;5.93;;;3.73;;
10661;SDS011;5379;51.034;7.006;2024-03-23T00:56:55;10.40;;;4.17;;
10661;SDS011;5379;51.034;7.006;2024-03-23T00:59:21;7.80;;;4.80;;
10661;SDS011;5379;51.034;7.006;2024-03-23T05:31:49;1.60;;;1.50;;
10661;SDS011;5379;51.034;7.006;2024-03-23T05:34:18;1.10;;;1.10;;
10661;SDS011;5379;51.034;7.006;2024-03-23T05:36:44;2.13;;;1.93;;
10661;SDS011;5379;51.034;7.006;2024-03-23T05:39:11;1.77;;;1.43;;
10661;SDS011;5379;51.034;7.006;2024-03-23T05:41:41;4.93;;;1.87;;
10661;SDS011;5379;51.034;7.006;2024-03-23T05:44:09;1.63;;;1.40;;
10661;SDS011;5379;51.034;7.006;2024-03-23T05:46:36;2.77;;;1.53;;
10661;SDS011;5379;51.034;7.006;2024-03-23T05:49:04;11.20;;;2.30;;
10661;SDS011;5379;51.034;7.006;2024-03-23T05:51:30;4.73;;;1.67;;
10661;SDS011;5379;51.034;7.006;2024-03-23T05:53:57;2.80;;;1.80;;
10661;SDS011;5379;51.034;7.006;2024-03-23T05:56:23;1.77;;;1.60;;
10661;SDS011;5379;51.034;7.006;2024-03-23T05:58:51;1.80;;;1.57;;
10661;SDS011;5379;51.034;7.006;2024-03-23T06:01:18;1.77;;;1.67;;
10661;SDS011;5379;51.034;7.006;2024-03-23T06:03:45;1.47;;;1.37;;
10661;SDS011;5379;51.034;7.006;2024-03-23T06:06:14;1.63;;;1.47;;
10661;SDS011;5379;51.034;7.006;2024-03-23T06:08:42;2.53;;;1.97;;
10661;SDS011;5379;51.034;7.006;2024-03-23T06:11:12;1.70;;;1.57;;
10661;SDS011;5379;51.034;7.006;2024-03-23T06:13:39;3.23;;;1.30;;
10661;SDS011;5379;51.034;7.006;2024-03-23T06:16:09;3.47;;;2.07;;
10661;SDS011;5379;51.034;7.006;2024-03-23T06:18:36;3.40;;;1.77;;
10661;SDS011;5379;51.034;7.006;2024-03-23T06:21:02;2.83;;;1.87;;
10661;SDS011;5379;51.034;7.006;2024-03-23T06:23:31;2.53;;;1.73;;
10661;SDS011;5379;51.034;7.006;2024-03-23T06:25:57;2.57;;;1.57;;
10661;SDS011;5379;51.034;7.006;2024-03-23T06:28:24;3.03;;;2.27;;
10661;SDS011;5379;51.034;7.006;2024-03-23T06:30:50;5.17;;;2.57;;
10661;SDS011;5379;51.034;7.006;2024-03-23T06:33:17;2.80;;;1.73;;
10661;SDS011;5379;51.034;7.006;2024-03-23T06:35:43;2.87;;;1.20;;
10661;SDS011;5379;51.034;7.006;2024-03-23T06:38:15;2.13;;;1.07;;
10661;SDS011;5379;51.034;7.006;2024-03-23T06:40:42;2.70;;;1.40;;
10661;SDS011;5379;51.034;7.006;2024-03-23T06:43:12;2.80;;;1.23;;
10661;SDS011;5379;51.034;7.006;2024-03-23T06:45:38;3.50;;;1.73;;
10661;SDS011;5379;51.034;7.006;2024-03-23T06:48:06;4.23;;;1.60;;
10661;SDS011;5379;51.034;7.006;2024-03-23T06:50:32;2.57;;;1.33;;
10661;SDS011;5379;51.034;7.006;2024-03-23T06:52:59;1.67;;;1.57;;
10661;SDS011;5379;51.034;7.006;2024-03-23T06:55:27;2.17;;;1.53;;
10661;SDS011;5379;51.034;7.006;2024-03-23T06:57:55;6.17;;;2.27;;
10661;SDS011;5379;51.034;7.006;2024-03-23T07:00:21;2.00;;;1.00;;
10661;SDS011;5379;51.034;7.006;2024-03-23T07:02:48;1.60;;;1.50;;
10661;SDS011;5379;51.034;7.006;2024-03-23T07:05:14;3.40;;;1.73;;
10661;SDS011;5379;51.034;7.006;2024-03-23T07:07:41;1.70;;;1.50;;
10661;SDS011;5379;51.034;7.006;2024-03-23T07:10:07;1.30;;;1.10;;
10661;SDS011;5379;51.034;7.006;2024-03-23T07:12:34;6.47;;;2.37;;
10661;SDS011;5379;51.034;7.006;2024-03-23T07:15:02;5.60;;;2.30;;
10661;SDS011;5379;51.034;7.006;2024-03-23T07:17:29;6.73;;;2.10;;
10661;SDS011;5379;51.034;7.006;2024-03-23T07:19:57;9.70;;;2.00;;
10661;SDS011;5379;51.034;7.006;2024-03-23T07:22:31;4.73;;;1.80;;
10661;SDS011;5379;51.034;7.006;2024-03-23T07:25:00;1.80;;;1.50;;
10661;SDS011;5379;51.034;7.006;2024-03-23T07:27:27;1.87;;;1.70;;
10661;SDS011;5379;51.034;7.006;2024-03-23T07:29:54;11.10;;;2.40;;
10661;SDS011;5379;51.034;7.006;2024-03-23T07:32:26;7.03;;;2.37;;
10661;SDS011;5379;51.034;7.006;2024-03-23T07:34:52;4.57;;;1.90;;
10661;SDS011;5379;51.034;7.006;2024-03-23T07:37:19;2.17;;;1.97;;
10661;SDS011;5379;51.034;7.006;2024-03-23T07:39:47;5.27;;;2.67;;
10661;SDS011;5379;51.034;7.006;2024-03-23T07:42:16;1.63;;;1.53;;
10661;SDS011;5379;51.034;7.006;2024-03-23T07:44:42;3.63;;;2.07;;
10661;SDS011;5379;51.034;7.006;2024-03-23T07:47:09;1.37;;;1.30;;
10661;SDS011;5379;51.034;7.006;2024-03-23T07:49:36;2.97;;;1.87;;
10661;SDS011;5379;51.034;7.006;2024-03-23T07:52:03;10.50;;;1.90;;
10661;SDS011;5379;51.034;7.006;2024-03-23T07:54:29;3.80;;;1.87;;
10661;SDS011;5379;51.034;7.006;2024-03-23T07:56:56;14.47;;;1.87;;
10661;SDS011;5379;51.034;7.006;2024-03-23T07:59:22;1.70;;;1.60;;
10661;SDS011;5379;51.034;7.006;2024-03-23T08:01:50;0.80;;;0.70;;
10661;SDS011;5379;51.034;7.006;2024-03-23T08:04:16;10.80;;;2.47;;
10661;SDS011;5379;51.034;7.006;2024-03-23T08:06:46;7.43;;;3.20;;
10661;SDS011;5379;51.034;7.006;2024-03-23T08:09:13;4.63;;;1.57;;
10661;SDS011;5379;51.034;7.006;2024-03-23T08:11:41;3.30;;;2.20;;
10661;SDS011;5379;51.034;7.006;2024-03-23T08:14:10;10.37;;;2.30;;
10661;SDS011;5379;51.034;7.006;2024-03-23T08:16:38;4.07;;;2.10;;
10661;SDS011;5379;51.034;7.006;2024-03-23T08:21:55;1.20;;;0.70;;
10661;SDS011;5379;51.034;7.006;2024-03-23T08:24:21;4.83;;;1.70;;
10661;SDS011;5379;51.034;7.006;2024-03-23T08:26:48;1.50;;;1.40;;
10661;SDS011;5379;51.034;7.006;2024-03-23T08:29:14;1.53;;;1.43;;
10661;SDS011;5379;51.034;7.006;2024-03-23T08:31:41;4.97;;;2.33;;
10661;SDS011;5379;51.034;7.006;2024-03-23T08:34:08;0.87;;;0.87;;
10661;SDS011;5379;51.034;7.006;2024-03-23T08:36:35;1.50;;;1.13;;
10661;SDS011;5379;51.034;7.006;2024-03-23T08:39:02;3.67;;;1.90;;
10661;SDS011;5379;51.034;7.006;2024-03-23T08:41:29;1.10;;;1.07;;
10661;SDS011;5379;51.034;7.006;2024-03-23T08:43:55;1.60;;;1.50;;
10661;SDS011;5379;51.034;7.006;2024-03-23T08:46:23;0.73;;;0.73;;
10661;SDS011;5379;51.034;7.006;2024-03-23T08:48:49;2.03;;;1.60;;
10661;SDS011;5379;51.034;7.006;2024-03-23T08:51:17;1.77;;;1.37;;
10661;SDS011;5379;51.034;7.006;2024-03-23T08:53:43;5.33;;;1.33;;
10661;SDS011;5379;51.034;7.006;2024-03-23T08:56:12;0.83;;;0.60;;
10661;SDS011;5379;51.034;7.006;2024-03-23T08:58:38;1.17;;;0.93;;
10661;SDS011;5379;51.034;7.006;2024-03-23T09:01:06;1.00;;;0.97;;
10661;SDS011;5379;51.034;7.006;2024-03-23T09:03:33;0.00;;;0.00;;
10661;SDS011;5379;51.034;7.006;2024-03-23T09:06:00;1.90;;;1.50;;
10661;SDS011;5379;51.034;7.006;2024-03-23T09:08:26;1.20;;;1.17;;
10661;SDS011;5379;51.034;7.006;2024-03-23T09:10:53;2.77;;;1.80;;
10661;SDS011;5379;51.034;7.006;2024-03-23T09:13:21;0.70;;;0.70;;
10661;SDS011;5379;51.034;7.006;2024-03-23T09:15:48;1.40;;;1.30;;
10661;SDS011;5379;51.034;7.006;2024-03-23T09:18:15;1.97;;;1.50;;
10661;SDS011;5379;51.034;7.006;2024-03-23T09:20:43;2.17;;;1.77;;
10661;SDS011;5379;51.034;7.006;2024-03-23T09:23:33;2.83;;;2.10;;
10661;SDS011;5379;51.034;7.006;2024-03-23T09:26:02;3.53;;;1.30;;
10661;SDS011;5379;51.034;7.006;2024-03-23T09:28:30;3.67;;;1.87;;
10661;SDS011;5379;51.034;7.006;2024-03-23T09:31:01;1.27;;;1.17;;
10661;SDS011;5379;51.034;7.006;2024-03-23T09:33:27;3.03;;;1.80;;
10661;SDS011;5379;51.034;7.006;2024-03-23T09:35:55;0.47;;;0.47;;
10661;SDS011;5379;51.034;7.006;2024-03-23T09:38:21;0.97;;;0.97;;
10661;SDS011;5379;51.034;7.006;2024-03-23T09:40:48;2.70;;;1.00;;
10661;SDS011;5379;51.034;7.006;2024-03-23T09:43:18;2.63;;;1.60;;
10661;SDS011;5379;51.034;7.006;2024-03-23T09:45:46;9.27;;;1.70;;
10661;SDS011;5379;51.034;7.006;2024-03-23T09:48:13;1.83;;;1.67;;
10661;SDS011;5379;51.034;7.006;2024-03-23T09:50:40;3.07;;;0.70;;
10661;SDS011;5379;51.034;7.006;2024-03-23T09:53:07;0.87;;;0.77;;
10661;SDS011;5379;51.034;7.006;2024-03-23T09:55:35;2.00;;;1.00;;
10661;SDS011;5379;51.034;7.006;2024-03-23T09:58:01;3.00;;;1.43;;
10661;SDS011;5379;51.034;7.006;2024-03-23T10:00:35;1.03;;;0.90;;
10661;SDS011;5379;51.034;7.006;2024-03-23T10:03:13;0.60;;;0.60;;
10661;SDS011;5379;51.034;7.006;2024-03-23T10:05:40;1.07;;;0.97;;
10661;SDS011;5379;51.034;7.006;2024-03-23T10:08:17;0.60;;;0.60;;
10661;SDS011;5379;51.034;7.006;2024-03-23T10:10:44;1.13;;;0.63;;
10661;SDS011;5379;51.034;7.006;2024-03-23T10:13:11;0.50;;;0.50;;
10661;SDS011;5379;51.034;7.006;2024-03-23T10:15:54;1.63;;;1.40;;
10661;SDS011;5379;51.034;7.006;2024-03-23T10:18:33;2.90;;;1.30;;
10661;SDS011;5379;51.034;7.006;2024-03-23T10:21:06;1.23;;;0.97;;
10661;SDS011;5379;51.034;7.006;2024-03-23T10:23:36;1.00;;;0.63;;
10661;SDS011;5379;51.034;7.006;2024-03-23T10:26:13;8.97;;;1.23;;
10661;SDS011;5379;51.034;7.006;2024-03-23T10:28:54;1.03;;;0.77;;
10661;SDS011;5379;51.034;7.006;2024-03-23T10:31:23;1.20;;;1.20;;
10661;SDS011;5379;51.034;7.006;2024-03-23T10:33:52;1.20;;;0.73;;
10661;SDS011;5379;51.034;7.006;2024-03-23T10:36:19;2.53;;;0.90;;
10661;SDS011;5379;51.034;7.006;2024-03-23T10:38:49;0.30;;;0.30;;
10661;SDS011;5379;51.034;7.006;2024-03-23T10:41:16;2.87;;;0.70;;
10661;SDS011;5379;51.034;7.006;2024-03-23T10:43:45;1.60;;;0.80;;
10661;SDS011;5379;51.034;7.006;2024-03-23T10:46:11;0.77;;;0.63;;
10661;SDS011;5379;51.034;7.006;2024-03-23T10:48:38;0.47;;;0.30;;
10661;SDS011;5379;51.034;7.006;2024-03-23T10:51:06;1.13;;;0.60;;
10661;SDS011;5379;51.034;7.006;2024-03-23T10:53:34;1.47;;;0.70;;
10661;SDS011;5379;51.034;7.006;2024-03-23T10:56:02;0.50;;;0.50;;
10661;SDS011;5379;51.034;7.006;2024-03-23T10:58:30;0.80;;;0.50;;
10661;SDS011;5379;51.034;7.006;2024-03-23T11:01:02;0.40;;;0.40;;
10661;SDS011;5379;51.034;7.006;2024-03-23T11:03:29;0.10;;;0.10;;
10661;SDS011;5379;51.034;7.006;2024-03-23T11:05:56;0.50;;;0.40;;
10661;SDS011;5379;51.034;7.006;2024-03-23T11:08:33;0.70;;;0.70;;
10661;SDS011;5379;51.034;7.006;2024-03-23T11:13:56;0.37;;;0.37;;
10661;SDS011;5379;51.034;7.006;2024-03-23T11:16:23;1.60;;;0.80;;
10661;SDS011;5379;51.034;7.006;2024-03-23T11:19:32;0.73;;;0.73;;
10661;SDS011;5379;51.034;7.006;2024-03-23T11:22:02;0.40;;;0.40;;
10661;SDS011;5379;51.034;7.006;2024-03-23T11:24:30;0.73;;;0.40;;
10661;SDS011;5379;51.034;7.006;2024-03-23T11:26:56;0.30;;;0.30;;
10661;SDS011;5379;51.034;7.006;2024-03-23T11:29:25;0.83;;;0.73;;
10661;SDS011;5379;51.034;7.006;2024-03-23T11:31:52;0.50;;;0.30;;
10661;SDS011;5379;51.034;7.006;2024-03-23T11:34:19;0.20;;;0.20;;
10661;SDS011;5379;51.034;7.006;2024-03-23T11:36:47;0.37;;;0.37;;
10661;SDS011;5379;51.034;7.006;2024-03-23T11:39:16;0.30;;;0.30;;
10661;SDS011;5379;51.034;7.006;2024-03-23T11:41:46;0.20;;;0.20;;
10661;SDS011;5379;51.034;7.006;2024-03-23T11:44:14;0.30;;;0.30;;
10661;SDS011;5379;51.034;7.006;2024-03-23T11:46:40;5.53;;;0.67;;
10661;SDS011;5379;51.034;7.006;2024-03-23T11:49:17;0.20;;;0.20;;
10661;SDS011;5379;51.034;7.006;2024-03-23T11:51:48;0.37;;;0.37;;
10661;SDS011;5379;51.034;7.006;2024-03-23T11:54:20;4.20;;;0.40;;
10661;SDS011;5379;51.034;7.006;2024-03-23T11:56:56;2.50;;;0.70;;
10661;SDS011;5379;51.034;7.006;2024-03-23T11:59:33;0.60;;;0.60;;
10661;SDS011;5379;51.034;7.006;2024-03-23T12:01:59;1.07;;;0.70;;
10661;SDS011;5379;51.034;7.006;2024-03-23T12:04:26;0.43;;;0.43;;
10661;SDS011;5379;51.034;7.006;2024-03-23T12:09:37;0.77;;;0.50;;
10661;SDS011;5379;51.034;7.006;2024-03-23T12:12:07;0.80;;;0.80;;
10661;SDS011;5379;51.034;7.006;2024-03-23T12:14:36;2.17;;;0.63;;
10661;SDS011;5379;51.034;7.006;2024-03-23T12:17:10;0.23;;;0.23;;
10661;SDS011;5379;51.034;7.006;2024-03-23T12:19:37;0.83;;;0.60;;
10661;SDS011;5379;51.034;7.006;2024-03-23T12:22:05;0.13;;;0.13;;
10661;SDS011;5379;51.034;7.006;2024-03-23T12:24:34;1.27;;;0.57;;
10661;SDS011;5379;51.034;7.006;2024-03-23T12:27:01;0.30;;;0.30;;
10661;SDS011;5379;51.034;7.006;2024-03-23T12:29:29;0.40;;;0.40;;
10661;SDS011;5379;51.034;7.006;2024-03-23T12:31:55;0.10;;;0.10;;
10661;SDS011;5379;51.034;7.006;2024-03-23T12:34:22;0.20;;;0.20;;
10661;SDS011;5379;51.034;7.006;2024-03-23T12:36:48;0.40;;;0.40;;
10661;SDS011;5379;51.034;7.006;2024-03-23T12:39:53;0.03;;;0.03;;
10661;SDS011;5379;51.034;7.006;2024-03-23T12:42:51;0.53;;;0.53;;
10661;SDS011;5379;51.034;7.006;2024-03-23T12:45:18;0.10;;;0.10;;
10661;SDS011;5379;51.034;7.006;2024-03-23T12:47:44;1.13;;;0.43;;
10661;SDS011;5379;51.034;7.006;2024-03-23T12:50:11;0.33;;;0.33;;
10661;SDS011;5379;51.034;7.006;2024-03-23T12:52:36;0.43;;;0.30;;
10661;SDS011;5379;51.034;7.006;2024-03-23T12:55:04;0.53;;;0.33;;
10661;SDS011;5379;51.034;7.006;2024-03-23T12:57:36;0.50;;;0.50;;
10661;SDS011;5379;51.034;7.006;2024-03-23T13:00:05;0.83;;;0.43;;
10661;SDS011;5379;51.034;7.006;2024-03-23T13:02:54;1.83;;;0.67;;
10661;SDS011;5379;51.034;7.006;2024-03-23T13:05:22;2.07;;;0.70;;
10661;SDS011;5379;51.034;7.006;2024-03-23T13:07:48;0.40;;;0.40;;
10661;SDS011;5379;51.034;7.006;2024-03-23T13:10:16;2.40;;;0.70;;
10661;SDS011;5379;51.034;7.006;2024-03-23T13:12:42;0.37;;;0.37;;
10661;SDS011;5379;51.034;7.006;2024-03-23T13:15:10;0.50;;;0.40;;
10661;SDS011;5379;51.034;7.006;2024-03-23T13:17:36;0.20;;;0.20;;
10661;SDS011;5379;51.034;7.006;2024-03-23T13:20:04;0.50;;;0.50;;
10661;SDS011;5379;51.034;7.006;2024-03-23T13:22:31;0.70;;;0.50;;
10661;SDS011;5379;51.034;7.006;2024-03-23T13:24:57;9.93;;;0.60;;
10661;SDS011;5379;51.034;7.006;2024-03-23T13:27:24;0.43;;;0.43;;
10661;SDS011;5379;51.034;7.006;2024-03-23T13:29:51;0.70;;;0.70;;
10661;SDS011;5379;51.034;7.006;2024-03-23T13:32:18;0.40;;;0.40;;
10661;SDS011;5379;51.034;7.006;2024-03-23T13:34:45;0.47;;;0.47;;
10661;SDS011;5379;51.034;7.006;2024-03-23T13:37:15;0.57;;;0.57;;
10661;SDS011;5379;51.034;7.006;2024-03-23T13:39:42;0.97;;;0.60;;
10661;SDS011;5379;51.034;7.006;2024-03-23T13:42:08;0.87;;;0.50;;
10661;SDS011;5379;51.034;7.006;2024-03-23T13:44:37;1.27;;;0.93;;
10661;SDS011;5379;51.034;7.006;2024-03-23T13:47:03;0.73;;;0.73;;
10661;SDS011;5379;51.034;7.006;2024-03-23T13:49:32;1.07;;;0.80;;
10661;SDS011;5379;51.034;7.006;2024-03-23T13:51:58;7.10;;;0.77;;
10661;SDS011;5379;51.034;7.006;2024-03-23T13:54:25;1.03;;;0.93;;
10661;SDS011;5379;51.034;7.006;2024-03-23T13:56:51;1.23;;;1.00;;
10661;SDS011;5379;51.034;7.006;2024-03-23T13:59:19;0.50;;;0.50;;
10661;SDS011;5379;51.034;7.006;2024-03-23T14:01:46;0.50;;;0.50;;
10661;SDS011;5379;51.034;7.006;2024-03-23T14:04:13;0.50;;;0.50;;
10661;SDS011;5379;51.034;7.006;2024-03-23T14:06:43;1.10;;;0.93;;
10661;SDS011;5379;51.034;7.006;2024-03-23T14:09:10;0.57;;;0.40;;
10661;SDS011;5379;51.034;7.006;2024-03-23T14:11:37;1.17;;;0.63;;
10661;SDS011;5379;51.034;7.006;2024-03-23T14:14:05;1.80;;;0.37;;
10661;SDS011;5379;51.034;7.006;2024-03-23T14:16:31;0.53;;;0.40;;
10661;SDS011;5379;51.034;7.006;2024-03-23T14:18:58;0.67;;;0.30;;
10661;SDS011;5379;51.034;7.006;2024-03-23T14:21:24;13.27;;;0.33;;
10661;SDS011;5379;51.034;7.006;2024-03-23T14:23:52;0.40;;;0.40;;
10661;SDS011;5379;51.034;7.006;2024-03-23T14:26:19;0.40;;;0.40;;
10661;SDS011;5379;51.034;7.006;2024-03-23T14:28:45;0.30;;;0.30;;
10661;SDS011;5379;51.034;7.006;2024-03-23T14:31:12;0.80;;;0.70;;
10661;SDS011;5379;51.034;7.006;2024-03-23T14:33:39;0.80;;;0.80;;
10661;SDS011;5379;51.034;7.006;2024-03-23T14:36:11;0.53;;;0.53;;
10661;SDS011;5379;51.034;7.006;2024-03-23T14:38:37;0.30;;;0.30;;
10661;SDS011;5379;51.034;7.006;2024-03-23T14:41:04;0.90;;;0.90;;
10661;SDS011;5379;51.034;7.006;2024-03-23T14:43:31;1.10;;;0.73;;
10661;SDS011;5379;51.034;7.006;2024-03-23T14:46:06;0.30;;;0.30;;
10661;SDS011;5379;51.034;7.006;2024-03-23T14:48:34;1.20;;;0.60;;
10661;SDS011;5379;51.034;7.006;2024-03-23T14:51:00;0.50;;;0.50;;
10661;SDS011;5379;51.034;7.006;2024-03-23T14:53:36;1.43;;;0.73;;
10661;SDS011;5379;51.034;7.006;2024-03-23T14:56:11;0.63;;;0.33;;
10661;SDS011;5379;51.034;7.006;2024-03-23T14:58:40;0.40;;;0.40;;
10661;SDS011;5379;51.034;7.006;2024-03-23T15:01:07;0.60;;;0.60;;
10661;SDS011;5379;51.034;7.006;2024-03-23T15:03:35;0.60;;;0.30;;
10661;SDS011;5379;51.034;7.006;2024-03-23T15:06:01;0.30;;;0.30;;
10661;SDS011;5379;51.034;7.006;2024-03-23T15:08:28;2.33;;;0.83;;
10661;SDS011;5379;51.034;7.006;2024-03-23T15:10:54;0.50;;;0.27;;
10661;SDS011;5379;51.034;7.006;2024-03-23T15:13:22;0.83;;;0.70;;
10661;SDS011;5379;51.034;7.006;2024-03-23T15:15:49;0.63;;;0.63;;
10661;SDS011;5379;51.034;7.006;2024-03-23T15:18:18;0.50;;;0.50;;
10661;SDS011;5379;51.034;7.006;2024-03-23T15:20:51;0.30;;;0.30;;
10661;SDS011;5379;51.034;7.006;2024-03-23T15:23:19;0.33;;;0.33;;
10661;SDS011;5379;51.034;7.006;2024-03-23T15:25:45;0.70;;;0.70;;
10661;SDS011;5379;51.034;7.006;2024-03-23T15:28:12;0.63;;;0.30;;
10661;SDS011;5379;51.034;7.006;2024-03-23T15:30:40;0.60;;;0.60;;
10661;SDS011;5379;51.034;7.006;2024-03-23T15:33:06;0.17;;;0.17;;
10661;SDS011;5379;51.034;7.006;2024-03-23T15:35:32;0.30;;;0.30;;
10661;SDS011;5379;51.034;7.006;2024-03-23T15:38:02;0.40;;;0.40;;
10661;SDS011;5379;51.034;7.006;2024-03-23T15:40:28;0.40;;;0.40;;
10661;SDS011;5379;51.034;7.006;2024-03-23T15:42:55;3.40;;;0.70;;
10661;SDS011;5379;51.034;7.006;2024-03-23T15:45:21;0.33;;;0.33;;
10661;SDS011;5379;51.034;7.006;2024-03-23T15:47:49;0.47;;;0.47;;
10661;SDS011;5379;51.034;7.006;2024-03-23T15:50:15;1.37;;;0.70;;
10661;SDS011;5379;51.034;7.006;2024-03-23T15:52:41;1.13;;;0.77;;
10661;SDS011;5379;51.034;7.006;2024-03-23T15:55:07;1.17;;;0.73;;
10661;SDS011;5379;51.034;7.006;2024-03-23T15:57:35;0.87;;;0.87;;
10661;SDS011;5379;51.034;7.006;2024-03-23T16:00:02;0.53;;;0.53;;
10661;SDS011;5379;51.034;7.006;2024-03-23T16:02:29;0.50;;;0.50;;
10661;SDS011;5379;51.034;7.006;2024-03-23T16:04:57;0.27;;;0.27;;
10661;SDS011;5379;51.034;7.006;2024-03-23T16:07:28;0.90;;;0.80;;
10661;SDS011;5379;51.034;7.006;2024-03-23T16:09:55;0.60;;;0.60;;
10661;SDS011;5379;51.034;7.006;2024-03-23T16:12:21;0.57;;;0.57;;
10661;SDS011;5379;51.034;7.006;2024-03-23T16:14:48;0.83;;;0.77;;
10661;SDS011;5379;51.034;7.006;2024-03-23T16:17:14;1.97;;;0.90;;
10661;SDS011;5379;51.034;7.006;2024-03-23T16:19:41;0.83;;;0.77;;
10661;SDS011;5379;51.034;7.006;2024-03-23T16:22:09;1.20;;;1.20;;
10661;SDS011;5379;51.034;7.006;2024-03-23T16:24:38;1.03;;;1.03;;
10661;SDS011;5379;51.034;7.006;2024-03-23T16:27:04;1.10;;;1.00;;
10661;SDS011;5379;51.034;7.006;2024-03-23T16:29:30;0.90;;;0.90;;
10661;SDS011;5379;51.034;7.006;2024-03-23T16:31:56;0.87;;;0.87;;
10661;SDS011;5379;51.034;7.006;2024-03-23T16:34:23;2.63;;;1.33;;
10661;SDS011;5379;51.034;7.006;2024-03-23T16:36:49;0.80;;;0.80;;
10661;SDS011;5379;51.034;7.006;2024-03-23T16:39:17;0.53;;;0.53;;
10661;SDS011;5379;51.034;7.006;2024-03-23T16:41:43;0.83;;;0.80;;
10661;SDS011;5379;51.034;7.006;2024-03-23T16:44:10;5.37;;;0.90;;
10661;SDS011;5379;51.034;7.006;2024-03-23T16:46:36;1.17;;;0.73;;
10661;SDS011;5379;51.034;7.006;2024-03-23T16:49:03;0.77;;;0.77;;
10661;SDS011;5379;51.034;7.006;2024-03-23T16:51:29;0.50;;;0.40;;
10661;SDS011;5379;51.034;7.006;2024-03-23T16:53:56;1.20;;;0.50;;
10661;SDS011;5379;51.034;7.006;2024-03-23T16:56:25;0.70;;;0.70;;
10661;SDS011;5379;51.034;7.006;2024-03-23T16:58:53;0.53;;;0.53;;
10661;SDS011;5379;51.034;7.006;2024-03-23T17:01:19;0.67;;;0.43;;
10661;SDS011;5379;51.034;7.006;2024-03-23T17:03:49;0.57;;;0.40;;
10661;SDS011;5379;51.034;7.006;2024-03-23T17:06:16;0.80;;;0.80;;
10661;SDS011;5379;51.034;7.006;2024-03-23T17:08:43;0.67;;;0.67;;
10661;SDS011;5379;51.034;7.006;2024-03-23T17:11:10;0.53;;;0.53;;
10661;SDS011;5379;51.034;7.006;2024-03-23T17:13:40;0.83;;;0.80;;
10661;SDS011;5379;51.034;7.006;2024-03-23T17:16:09;0.90;;;0.90;;
10661;SDS011;5379;51.034;7.006;2024-03-23T17:18:38;0.80;;;0.80;;
10661;SDS011;5379;51.034;7.006;2024-03-23T17:21:04;0.70;;;0.50;;
10661;SDS011;5379;51.034;7.006;2024-03-23T17:23:31;0.43;;;0.43;;
10661;SDS011;5379;51.034;7.006;2024-03-23T17:25:58;0.70;;;0.70;;
10661;SDS011;5379;51.034;7.006;2024-03-23T17:28:25;0.27;;;0.27;;
10661;SDS011;5379;51.034;7.006;2024-03-23T17:30:53;1.33;;;0.70;;
10661;SDS011;5379;51.034;7.006;2024-03-23T17:33:20;0.57;;;0.57;;
10661;SDS011;5379;51.034;7.006;2024-03-23T17:35:48;1.47;;;0.90;;
10661;SDS011;5379;51.034;7.006;2024-03-23T17:38:15;0.67;;;0.67;;
10661;SDS011;5379;51.034;7.006;2024-03-23T17:40:42;1.13;;;0.93;;
10661;SDS011;5379;51.034;7.006;2024-03-23T17:43:09;0.87;;;0.83;;
10661;SDS011;5379;51.034;7.006;2024-03-23T17:45:35;0.53;;;0.53;;
10661;SDS011;5379;51.034;7.006;2024-03-23T17:48:07;1.00;;;1.00;;
10661;SDS011;5379;51.034;7.006;2024-03-23T17:50:33;0.97;;;0.87;;
10661;SDS011;5379;51.034;7.006;2024-03-23T17:53:00;1.37;;;0.50;;
10661;SDS011;5379;51.034;7.006;2024-03-23T17:55:27;0.33;;;0.33;;
10661;SDS011;5379;51.034;7.006;2024-03-23T17:57:54;0.60;;;0.60;;
10661;SDS011;5379;51.034;7.006;2024-03-23T18:00:22;0.70;;;0.70;;
10661;SDS011;5379;51.034;7.006;2024-03-23T18:02:49;0.80;;;0.70;;
10661;SDS011;5379;51.034;7.006;2024-03-23T18:05:16;0.80;;;0.80;;
10661;SDS011;5379;51.034;7.006;2024-03-23T18:07:45;1.87;;;0.80;;
10661;SDS011;5379;51.034;7.006;2024-03-23T18:10:11;1.77;;;1.30;;
10661;SDS011;5379;51.034;7.006;2024-03-23T18:12:38;0.90;;;0.90;;
10661;SDS011;5379;51.034;7.006;2024-03-23T18:15:05;0.97;;;0.90;;
10661;SDS011;5379;51.034;7.006;2024-03-23T18:17:33;1.20;;;1.10;;
10661;SDS011;5379;51.034;7.006;2024-03-23T18:19:59;1.10;;;1.10;;
10661;SDS011;5379;51.034;7.006;2024-03-23T18:22:27;1.43;;;0.93;;
10661;SDS011;5379;51.034;7.006;2024-03-23T18:24:53;0.93;;;0.70;;
10661;SDS011;5379;51.034;7.006;2024-03-23T18:27:21;0.90;;;0.90;;
10661;SDS011;5379;51.034;7.006;2024-03-23T18:29:48;0.57;;;0.57;;
10661;SDS011;5379;51.034;7.006;2024-03-23T18:32:15;3.10;;;1.27;;
10661;SDS011;5379;51.034;7.006;2024-03-23T18:34:41;1.00;;;1.00;;
10661;SDS011;5379;51.034;7.006;2024-03-23T18:37:08;1.30;;;1.20;;
10661;SDS011;5379;51.034;7.006;2024-03-23T18:39:35;0.70;;;0.70;;
10661;SDS011;5379;51.034;7.006;2024-03-23T18:42:02;0.80;;;0.80;;
10661;SDS011;5379;51.034;7.006;2024-03-23T18:44:30;0.47;;;0.47;;
10661;SDS011;5379;51.034;7.006;2024-03-23T18:46:58;0.87;;;0.87;;
10661;SDS011;5379;51.034;7.006;2024-03-23T18:49:24;3.67;;;1.50;;
10661;SDS011;5379;51.034;7.006;2024-03-23T18:51:51;1.83;;;1.30;;
10661;SDS011;5379;51.034;7.006;2024-03-23T18:54:17;1.70;;;1.50;;
10661;SDS011;5379;51.034;7.006;2024-03-23T18:56:45;1.13;;;1.13;;
10661;SDS011;5379;51.034;7.006;2024-03-23T18:59:11;0.80;;;0.80;;
10661;SDS011;5379;51.034;7.006;2024-03-23T19:01:38;0.90;;;0.90;;
10661;SDS011;5379;51.034;7.006;2024-03-23T19:04:05;1.03;;;0.93;;
10661;SDS011;5379;51.034;7.006;2024-03-23T19:06:32;2.53;;;0.90;;
10661;SDS011;5379;51.034;7.006;2024-03-23T19:08:58;1.00;;;1.00;;
10661;SDS011;5379;51.034;7.006;2024-03-23T19:11:25;0.60;;;0.60;;
10661;SDS011;5379;51.034;7.006;2024-03-23T19:13:53;1.70;;;0.97;;
10661;SDS011;5379;51.034;7.006;2024-03-23T19:16:20;1.53;;;1.10;;
10661;SDS011;5379;51.034;7.006;2024-03-23T19:18:46;1.40;;;1.30;;
10661;SDS011;5379;51.034;7.006;2024-03-23T19:21:13;0.97;;;0.93;;
10661;SDS011;5379;51.034;7.006;2024-03-23T19:23:39;0.90;;;0.90;;
10661;SDS011;5379;51.034;7.006;2024-03-23T19:26:06;2.77;;;1.20;;
10661;SDS011;5379;51.034;7.006;2024-03-23T19:28:32;1.10;;;0.93;;
10661;SDS011;5379;51.034;7.006;2024-03-23T19:31:02;1.13;;;1.13;;
10661;SDS011;5379;51.034;7.006;2024-03-23T19:33:28;0.93;;;0.93;;
10661;SDS011;5379;51.034;7.006;2024-03-23T19:35:57;3.77;;;1.83;;
10661;SDS011;5379;51.034;7.006;2024-03-23T19:38:24;6.70;;;1.30;;
10661;SDS011;5379;51.034;7.006;2024-03-23T19:40:51;1.63;;;1.40;;
10661;SDS011;5379;51.034;7.006;2024-03-23T19:43:17;1.63;;;1.53;;
10661;SDS011;5379;51.034;7.006;2024-03-23T19:45:44;1.40;;;1.40;;
10661;SDS011;5379;51.034;7.006;2024-03-23T19:48:12;1.47;;;1.37;;
10661;SDS011;5379;51.034;7.006;2024-03-23T19:50:39;1.40;;;1.30;;
10661;SDS011;5379;51.034;7.006;2024-03-23T19:53:06;2.20;;;1.63;;
10661;SDS011;5379;51.034;7.006;2024-03-23T19:55:33;1.60;;;1.50;;
10661;SDS011;5379;51.034;7.006;2024-03-23T19:57:59;1.73;;;1.30;;
10661;SDS011;5379;51.034;7.006;2024-03-23T20:00:26;1.27;;;1.27;;
10661;SDS011;5379;51.034;7.006;2024-03-23T20:02:52;1.50;;;1.40;;
10661;SDS011;5379;51.034;7.006;2024-03-23T20:05:23;2.43;;;2.23;;
10661;SDS011;5379;51.034;7.006;2024-03-23T20:07:49;2.03;;;1.93;;
10661;SDS011;5379;51.034;7.006;2024-03-23T20:10:16;1.70;;;1.60;;
10661;SDS011;5379;51.034;7.006;2024-03-23T20:12:42;1.93;;;1.80;;
10661;SDS011;5379;51.034;7.006;2024-03-23T20:15:09;2.03;;;1.93;;
10661;SDS011;5379;51.034;7.006;2024-03-23T20:17:35;1.60;;;1.50;;
10661;SDS011;5379;51.034;7.006;2024-03-23T20:20:03;2.10;;;2.00;;
10661;SDS011;5379;51.034;7.006;2024-03-23T20:22:30;2.97;;;2.43;;
10661;SDS011;5379;51.034;7.006;2024-03-23T20:24:57;5.77;;;1.97;;
10661;SDS011;5379;51.034;7.006;2024-03-23T20:27:24;2.13;;;1.97;;
10661;SDS011;5379;51.034;7.006;2024-03-23T20:29:52;1.37;;;1.33;;
10661;SDS011;5379;51.034;7.006;2024-03-23T20:32:19;2.47;;;1.93;;
10661;SDS011;5379;51.034;7.006;2024-03-23T20:34:46;4.53;;;1.80;;
10661;SDS011;5379;51.034;7.006;2024-03-23T20:37:12;4.33;;;2.27;;